sensor_id;sensor_type;location;lat;lon;timestamp;temperature;humidity
46217;DHT22;47258;59.424;13.482;2023-07-31T00:00:15;13.30;99.90
46217;DHT22;47258;59.424;13.482;2023-07-31T00:02:42;13.30;99.90
46217;DHT22;47258;59.424;13.482;2023-07-31T00:05:09;13.40;99.90
46217;DHT22;47258;59.424;13.482;2023-07-31T00:07:36;13.40;99.90
46217;DHT22;47258;59.424;13.482;2023-07-31T00:10:05;13.40;99.90
46217;DHT22;47258;59.424;13.482;2023-07-31T00:12:32;13.40;99.90
46217;DHT22;47258;59.424;13.482;2023-07-31T00:15:00;13.40;99.90
46217;DHT22;47258;59.424;13.482;2023-07-31T00:17:27;13.50;99.90
46217;DHT22;47258;59.424;13.482;2023-07-31T00:19:54;13.50;99.90
46217;DHT22;47258;59.424;13.482;2023-07-31T00:22:21;13.50;99.90
46217;DHT22;47258;59.424;13.482;2023-07-31T00:24:48;13.50;99.90
46217;DHT22;47258;59.424;13.482;2023-07-31T00:27:16;13.40;99.90
46217;DHT22;47258;59.424;13.482;2023-07-31T00:29:43;13.30;99.90
46217;DHT22;47258;59.424;13.482;2023-07-31T00:32:10;13.40;99.90
46217;DHT22;47258;59.424;13.482;2023-07-31T00:34:37;13.40;99.90
46217;DHT22;47258;59.424;13.482;2023-07-31T00:37:05;13.40;99.90
46217;DHT22;47258;59.424;13.482;2023-07-31T00:39:34;13.30;99.90
46217;DHT22;47258;59.424;13.482;2023-07-31T00:42:01;13.40;99.90
46217;DHT22;47258;59.424;13.482;2023-07-31T00:44:30;13.40;99.90
46217;DHT22;47258;59.424;13.482;2023-07-31T00:46:57;13.50;99.90
46217;DHT22;47258;59.424;13.482;2023-07-31T00:49:25;13.50;99.90
46217;DHT22;47258;59.424;13.482;2023-07-31T00:51:53;13.50;99.90
46217;DHT22;47258;59.424;13.482;2023-07-31T00:54:22;13.60;99.90
46217;DHT22;47258;59.424;13.482;2023-07-31T00:56:50;13.60;99.90
46217;DHT22;47258;59.424;13.482;2023-07-31T00:59:19;13.60;99.90
46217;DHT22;47258;59.424;13.482;2023-07-31T01:01:48;13.50;99.90
46217;DHT22;47258;59.424;13.482;2023-07-31T01:04:16;13.50;99.90
46217;DHT22;47258;59.424;13.482;2023-07-31T01:06:54;13.60;99.90
46217;DHT22;47258;59.424;13.482;2023-07-31T01:09:31;13.60;99.90
46217;DHT22;47258;59.424;13.482;2023-07-31T01:12:03;13.60;99.90
46217;DHT22;47258;59.424;13.482;2023-07-31T01:14:30;13.60;99.90
46217;DHT22;47258;59.424;13.482;2023-07-31T01:16:58;13.50;99.90
46217;DHT22;47258;59.424;13.482;2023-07-31T01:19:26;13.40;99.90
46217;DHT22;47258;59.424;13.482;2023-07-31T01:22:16;13.50;99.90
46217;DHT22;47258;59.424;13.482;2023-07-31T01:24:55;13.50;99.90
46217;DHT22;47258;59.424;13.482;2023-07-31T01:27:29;13.50;99.90
46217;DHT22;47258;59.424;13.482;2023-07-31T01:30:03;13.50;99.90
46217;DHT22;47258;59.424;13.482;2023-07-31T01:32:36;13.50;99.90
46217;DHT22;47258;59.424;13.482;2023-07-31T01:35:06;13.40;99.90
46217;DHT22;47258;59.424;13.482;2023-07-31T01:37:34;13.40;99.90
46217;DHT22;47258;59.424;13.482;2023-07-31T01:40:01;13.30;99.90
46217;DHT22;47258;59.424;13.482;2023-07-31T01:42:30;13.30;99.90
46217;DHT22;47258;59.424;13.482;2023-07-31T01:44:57;13.30;99.90
46217;DHT22;47258;59.424;13.482;2023-07-31T01:47:24;13.30;99.90
46217;DHT22;47258;59.424;13.482;2023-07-31T01:49:51;13.30;99.90
46217;DHT22;47258;59.424;13.482;2023-07-31T01:52:18;13.40;99.90
46217;DHT22;47258;59.424;13.482;2023-07-31T01:54:45;13.40;99.90
46217;DHT22;47258;59.424;13.482;2023-07-31T01:57:12;13.40;99.90
46217;DHT22;47258;59.424;13.482;2023-07-31T01:59:40;13.50;99.90
46217;DHT22;47258;59.424;13.482;2023-07-31T02:02:07;13.50;99.90
46217;DHT22;47258;59.424;13.482;2023-07-31T02:04:34;13.50;99.90
46217;DHT22;47258;59.424;13.482;2023-07-31T02:07:01;13.60;99.90
46217;DHT22;47258;59.424;13.482;2023-07-31T02:09:29;13.60;99.90
46217;DHT22;47258;59.424;13.482;2023-07-31T02:11:56;13.70;99.90
46217;DHT22;47258;59.424;13.482;2023-07-31T02:14:23;13.70;99.90
46217;DHT22;47258;59.424;13.482;2023-07-31T02:16:51;13.70;99.90
46217;DHT22;47258;59.424;13.482;2023-07-31T02:19:18;13.70;99.90
46217;DHT22;47258;59.424;13.482;2023-07-31T02:21:45;13.70;99.90
46217;DHT22;47258;59.424;13.482;2023-07-31T02:24:12;13.70;99.90
46217;DHT22;47258;59.424;13.482;2023-07-31T02:26:39;13.70;99.90
46217;DHT22;47258;59.424;13.482;2023-07-31T02:29:08;13.60;99.90
46217;DHT22;47258;59.424;13.482;2023-07-31T02:31:35;13.60;99.90
46217;DHT22;47258;59.424;13.482;2023-07-31T02:34:03;13.60;99.90
46217;DHT22;47258;59.424;13.482;2023-07-31T02:36:30;13.60;99.90
46217;DHT22;47258;59.424;13.482;2023-07-31T02:38:57;13.70;99.90
46217;DHT22;47258;59.424;13.482;2023-07-31T02:41:24;13.70;99.90
46217;DHT22;47258;59.424;13.482;2023-07-31T02:43:51;13.70;99.90
46217;DHT22;47258;59.424;13.482;2023-07-31T02:46:19;13.70;99.90
46217;DHT22;47258;59.424;13.482;2023-07-31T02:48:49;13.70;99.90
46217;DHT22;47258;59.424;13.482;2023-07-31T02:51:18;13.70;99.90
46217;DHT22;47258;59.424;13.482;2023-07-31T02:53:47;13.70;99.90
46217;DHT22;47258;59.424;13.482;2023-07-31T02:56:14;13.60;99.90
46217;DHT22;47258;59.424;13.482;2023-07-31T02:58:41;13.60;99.90
46217;DHT22;47258;59.424;13.482;2023-07-31T03:01:08;13.60;99.90
46217;DHT22;47258;59.424;13.482;2023-07-31T03:03:35;13.60;99.90
46217;DHT22;47258;59.424;13.482;2023-07-31T03:06:02;13.60;99.90
46217;DHT22;47258;59.424;13.482;2023-07-31T03:08:30;13.60;99.90
46217;DHT22;47258;59.424;13.482;2023-07-31T03:10:57;13.60;99.90
46217;DHT22;47258;59.424;13.482;2023-07-31T03:13:24;13.70;99.90
46217;DHT22;47258;59.424;13.482;2023-07-31T03:15:51;13.60;99.90
46217;DHT22;47258;59.424;13.482;2023-07-31T03:18:18;13.60;99.90
46217;DHT22;47258;59.424;13.482;2023-07-31T03:20:45;13.60;99.90
46217;DHT22;47258;59.424;13.482;2023-07-31T03:23:12;13.70;99.90
46217;DHT22;47258;59.424;13.482;2023-07-31T03:25:55;13.70;99.90
46217;DHT22;47258;59.424;13.482;2023-07-31T03:28:23;13.70;99.90
46217;DHT22;47258;59.424;13.482;2023-07-31T03:30:50;13.80;99.90
46217;DHT22;47258;59.424;13.482;2023-07-31T03:33:17;13.80;99.90
46217;DHT22;47258;59.424;13.482;2023-07-31T03:35:44;13.90;99.90
46217;DHT22;47258;59.424;13.482;2023-07-31T03:38:11;13.90;99.90
46217;DHT22;47258;59.424;13.482;2023-07-31T03:40:40;14.00;99.90
46217;DHT22;47258;59.424;13.482;2023-07-31T03:43:07;14.00;99.90
46217;DHT22;47258;59.424;13.482;2023-07-31T03:45:34;14.00;99.90
46217;DHT22;47258;59.424;13.482;2023-07-31T03:48:02;14.00;99.90
46217;DHT22;47258;59.424;13.482;2023-07-31T03:50:29;14.00;99.90
46217;DHT22;47258;59.424;13.482;2023-07-31T03:52:56;14.00;99.90
46217;DHT22;47258;59.424;13.482;2023-07-31T03:55:23;14.00;99.90
46217;DHT22;47258;59.424;13.482;2023-07-31T03:57:51;14.00;99.90
46217;DHT22;47258;59.424;13.482;2023-07-31T04:00:19;14.00;99.90
46217;DHT22;47258;59.424;13.482;2023-07-31T04:02:46;14.00;99.90
46217;DHT22;47258;59.424;13.482;2023-07-31T04:05:13;14.00;99.90
46217;DHT22;47258;59.424;13.482;2023-07-31T04:07:40;14.00;99.90
46217;DHT22;47258;59.424;13.482;2023-07-31T04:10:07;14.00;99.90
46217;DHT22;47258;59.424;13.482;2023-07-31T04:12:34;14.10;99.90
46217;DHT22;47258;59.424;13.482;2023-07-31T04:15:03;14.20;99.90
46217;DHT22;47258;59.424;13.482;2023-07-31T04:17:31;14.30;99.90
46217;DHT22;47258;59.424;13.482;2023-07-31T04:19:58;14.40;99.90
46217;DHT22;47258;59.424;13.482;2023-07-31T04:22:25;14.40;99.90
46217;DHT22;47258;59.424;13.482;2023-07-31T04:24:52;14.50;99.90
46217;DHT22;47258;59.424;13.482;2023-07-31T04:27:19;14.60;99.90
46217;DHT22;47258;59.424;13.482;2023-07-31T04:29:46;14.60;99.90
46217;DHT22;47258;59.424;13.482;2023-07-31T04:32:14;14.60;99.90
46217;DHT22;47258;59.424;13.482;2023-07-31T04:34:42;14.60;99.90
46217;DHT22;47258;59.424;13.482;2023-07-31T04:37:09;14.70;99.90
46217;DHT22;47258;59.424;13.482;2023-07-31T04:39:36;14.70;99.90
46217;DHT22;47258;59.424;13.482;2023-07-31T04:42:03;14.70;99.90
46217;DHT22;47258;59.424;13.482;2023-07-31T04:44:31;14.80;99.90
46217;DHT22;47258;59.424;13.482;2023-07-31T04:46:58;14.90;99.90
46217;DHT22;47258;59.424;13.482;2023-07-31T04:49:26;14.90;99.90
46217;DHT22;47258;59.424;13.482;2023-07-31T04:51:53;15.00;99.90
46217;DHT22;47258;59.424;13.482;2023-07-31T04:54:20;15.00;99.90
46217;DHT22;47258;59.424;13.482;2023-07-31T04:56:47;15.10;99.90
46217;DHT22;47258;59.424;13.482;2023-07-31T04:59:14;15.10;99.90
46217;DHT22;47258;59.424;13.482;2023-07-31T05:01:41;15.20;99.90
46217;DHT22;47258;59.424;13.482;2023-07-31T05:04:08;15.20;99.90
46217;DHT22;47258;59.424;13.482;2023-07-31T05:06:37;15.30;99.90
46217;DHT22;47258;59.424;13.482;2023-07-31T05:09:04;15.40;99.90
46217;DHT22;47258;59.424;13.482;2023-07-31T05:11:31;15.50;99.90
46217;DHT22;47258;59.424;13.482;2023-07-31T05:13:58;15.40;99.90
46217;DHT22;47258;59.424;13.482;2023-07-31T05:16:25;15.50;99.90
46217;DHT22;47258;59.424;13.482;2023-07-31T05:18:52;15.50;99.90
46217;DHT22;47258;59.424;13.482;2023-07-31T05:21:19;15.50;99.90
46217;DHT22;47258;59.424;13.482;2023-07-31T05:23:47;15.60;99.90
46217;DHT22;47258;59.424;13.482;2023-07-31T05:26:14;15.60;99.90
46217;DHT22;47258;59.424;13.482;2023-07-31T05:28:41;15.60;99.90
46217;DHT22;47258;59.424;13.482;2023-07-31T05:31:08;15.70;99.90
46217;DHT22;47258;59.424;13.482;2023-07-31T05:33:36;15.70;99.90
46217;DHT22;47258;59.424;13.482;2023-07-31T05:36:03;15.70;99.90
46217;DHT22;47258;59.424;13.482;2023-07-31T05:38:30;15.80;99.90
46217;DHT22;47258;59.424;13.482;2023-07-31T05:40:58;15.80;99.90
46217;DHT22;47258;59.424;13.482;2023-07-31T05:43:25;15.90;99.90
46217;DHT22;47258;59.424;13.482;2023-07-31T05:45:52;16.00;99.90
46217;DHT22;47258;59.424;13.482;2023-07-31T05:48:19;16.00;99.90
46217;DHT22;47258;59.424;13.482;2023-07-31T05:50:46;16.10;99.90
46217;DHT22;47258;59.424;13.482;2023-07-31T05:53:13;16.10;99.90
46217;DHT22;47258;59.424;13.482;2023-07-31T05:55:40;16.20;99.90
46217;DHT22;47258;59.424;13.482;2023-07-31T05:58:09;16.30;99.90
46217;DHT22;47258;59.424;13.482;2023-07-31T06:00:36;16.30;99.90
46217;DHT22;47258;59.424;13.482;2023-07-31T06:03:03;16.30;99.90
46217;DHT22;47258;59.424;13.482;2023-07-31T06:05:30;16.40;99.90
46217;DHT22;47258;59.424;13.482;2023-07-31T06:07:57;16.40;99.90
46217;DHT22;47258;59.424;13.482;2023-07-31T06:10:24;16.50;99.90
46217;DHT22;47258;59.424;13.482;2023-07-31T06:12:52;16.60;99.90
46217;DHT22;47258;59.424;13.482;2023-07-31T06:15:21;16.50;99.90
46217;DHT22;47258;59.424;13.482;2023-07-31T06:17:48;16.50;99.90
46217;DHT22;47258;59.424;13.482;2023-07-31T06:20:15;16.50;99.90
46217;DHT22;47258;59.424;13.482;2023-07-31T06:22:42;16.60;99.90
46217;DHT22;47258;59.424;13.482;2023-07-31T06:25:09;16.60;99.90
46217;DHT22;47258;59.424;13.482;2023-07-31T06:27:36;16.50;99.90
46217;DHT22;47258;59.424;13.482;2023-07-31T06:30:04;16.40;99.90
46217;DHT22;47258;59.424;13.482;2023-07-31T06:32:32;16.20;99.90
46217;DHT22;47258;59.424;13.482;2023-07-31T06:34:59;16.10;99.90
46217;DHT22;47258;59.424;13.482;2023-07-31T06:37:26;16.00;99.90
46217;DHT22;47258;59.424;13.482;2023-07-31T06:39:53;16.00;99.90
46217;DHT22;47258;59.424;13.482;2023-07-31T06:42:21;16.00;99.90
46217;DHT22;47258;59.424;13.482;2023-07-31T06:44:48;16.00;99.90
46217;DHT22;47258;59.424;13.482;2023-07-31T06:47:15;15.90;99.90
46217;DHT22;47258;59.424;13.482;2023-07-31T06:49:43;15.90;99.90
46217;DHT22;47258;59.424;13.482;2023-07-31T06:52:10;15.90;99.90
46217;DHT22;47258;59.424;13.482;2023-07-31T06:54:37;16.00;99.90
46217;DHT22;47258;59.424;13.482;2023-07-31T06:57:05;16.00;99.90
46217;DHT22;47258;59.424;13.482;2023-07-31T06:59:32;16.00;99.90
46217;DHT22;47258;59.424;13.482;2023-07-31T07:01:59;16.00;99.90
46217;DHT22;47258;59.424;13.482;2023-07-31T07:04:26;16.10;99.90
46217;DHT22;47258;59.424;13.482;2023-07-31T07:06:54;16.20;99.90
46217;DHT22;47258;59.424;13.482;2023-07-31T07:09:21;16.30;99.90
46217;DHT22;47258;59.424;13.482;2023-07-31T07:11:48;16.40;99.90
46217;DHT22;47258;59.424;13.482;2023-07-31T07:14:15;16.50;99.90
46217;DHT22;47258;59.424;13.482;2023-07-31T07:16:42;16.60;99.90
46217;DHT22;47258;59.424;13.482;2023-07-31T07:19:09;16.70;99.90
46217;DHT22;47258;59.424;13.482;2023-07-31T07:21:37;16.80;99.90
46217;DHT22;47258;59.424;13.482;2023-07-31T07:24:05;16.80;99.90
46217;DHT22;47258;59.424;13.482;2023-07-31T07:26:32;16.90;99.90
46217;DHT22;47258;59.424;13.482;2023-07-31T07:28:59;17.00;99.90
46217;DHT22;47258;59.424;13.482;2023-07-31T07:31:27;17.10;99.90
46217;DHT22;47258;59.424;13.482;2023-07-31T07:33:54;17.20;99.90
46217;DHT22;47258;59.424;13.482;2023-07-31T07:36:22;17.30;99.90
46217;DHT22;47258;59.424;13.482;2023-07-31T07:38:49;17.40;99.90
46217;DHT22;47258;59.424;13.482;2023-07-31T07:41:18;17.60;99.90
46217;DHT22;47258;59.424;13.482;2023-07-31T07:43:45;17.70;99.90
46217;DHT22;47258;59.424;13.482;2023-07-31T07:46:12;17.70;99.90
46217;DHT22;47258;59.424;13.482;2023-07-31T07:48:39;17.70;99.90
46217;DHT22;47258;59.424;13.482;2023-07-31T07:51:06;17.70;99.90
46217;DHT22;47258;59.424;13.482;2023-07-31T07:53:33;17.80;99.90
46217;DHT22;47258;59.424;13.482;2023-07-31T07:56:00;17.80;99.90
46217;DHT22;47258;59.424;13.482;2023-07-31T07:58:28;17.80;99.90
46217;DHT22;47258;59.424;13.482;2023-07-31T08:00:55;17.90;99.90
46217;DHT22;47258;59.424;13.482;2023-07-31T08:03:22;17.90;99.90
46217;DHT22;47258;59.424;13.482;2023-07-31T08:05:49;17.80;99.90
46217;DHT22;47258;59.424;13.482;2023-07-31T08:08:17;17.70;99.90
46217;DHT22;47258;59.424;13.482;2023-07-31T08:10:44;17.60;99.90
46217;DHT22;47258;59.424;13.482;2023-07-31T08:13:11;17.60;99.90
46217;DHT22;47258;59.424;13.482;2023-07-31T08:15:41;17.70;99.90
46217;DHT22;47258;59.424;13.482;2023-07-31T08:18:08;17.70;99.90
46217;DHT22;47258;59.424;13.482;2023-07-31T08:20:35;17.80;99.90
46217;DHT22;47258;59.424;13.482;2023-07-31T08:23:02;17.90;99.90
46217;DHT22;47258;59.424;13.482;2023-07-31T08:25:29;17.80;99.90
46217;DHT22;47258;59.424;13.482;2023-07-31T08:27:56;17.70;99.90
46217;DHT22;47258;59.424;13.482;2023-07-31T08:30:23;17.80;99.90
46217;DHT22;47258;59.424;13.482;2023-07-31T08:32:54;18.00;99.90
46217;DHT22;47258;59.424;13.482;2023-07-31T08:35:21;18.20;99.90
46217;DHT22;47258;59.424;13.482;2023-07-31T08:37:48;18.20;99.90
46217;DHT22;47258;59.424;13.482;2023-07-31T08:40:16;18.20;99.90
46217;DHT22;47258;59.424;13.482;2023-07-31T08:42:44;18.20;99.90
46217;DHT22;47258;59.424;13.482;2023-07-31T08:45:14;18.10;99.90
46217;DHT22;47258;59.424;13.482;2023-07-31T08:47:44;18.00;99.90
46217;DHT22;47258;59.424;13.482;2023-07-31T08:50:14;17.90;99.90
46217;DHT22;47258;59.424;13.482;2023-07-31T08:52:42;17.80;99.90
46217;DHT22;47258;59.424;13.482;2023-07-31T08:55:09;17.80;99.90
46217;DHT22;47258;59.424;13.482;2023-07-31T08:57:37;17.80;99.90
46217;DHT22;47258;59.424;13.482;2023-07-31T09:00:07;17.80;99.90
46217;DHT22;47258;59.424;13.482;2023-07-31T09:02:34;17.80;99.90
46217;DHT22;47258;59.424;13.482;2023-07-31T09:05:04;17.80;99.90
46217;DHT22;47258;59.424;13.482;2023-07-31T09:07:34;17.80;99.90
46217;DHT22;47258;59.424;13.482;2023-07-31T09:10:01;17.80;99.90
46217;DHT22;47258;59.424;13.482;2023-07-31T09:12:28;18.00;99.90
46217;DHT22;47258;59.424;13.482;2023-07-31T09:14:56;18.20;99.90
46217;DHT22;47258;59.424;13.482;2023-07-31T09:17:30;18.20;99.90
46217;DHT22;47258;59.424;13.482;2023-07-31T09:19:57;18.20;99.90
46217;DHT22;47258;59.424;13.482;2023-07-31T09:22:35;18.30;99.90
46217;DHT22;47258;59.424;13.482;2023-07-31T09:25:15;18.40;99.90
46217;DHT22;47258;59.424;13.482;2023-07-31T09:27:50;18.60;99.90
46217;DHT22;47258;59.424;13.482;2023-07-31T09:30:18;18.80;99.90
46217;DHT22;47258;59.424;13.482;2023-07-31T09:32:47;19.10;99.90
46217;DHT22;47258;59.424;13.482;2023-07-31T09:35:19;19.20;99.90
46217;DHT22;47258;59.424;13.482;2023-07-31T09:37:50;19.30;99.90
46217;DHT22;47258;59.424;13.482;2023-07-31T09:40:27;19.20;99.90
46217;DHT22;47258;59.424;13.482;2023-07-31T09:42:56;19.20;99.90
46217;DHT22;47258;59.424;13.482;2023-07-31T09:45:24;19.10;99.90
46217;DHT22;47258;59.424;13.482;2023-07-31T09:47:51;19.00;99.90
46217;DHT22;47258;59.424;13.482;2023-07-31T09:50:20;18.90;99.90
46217;DHT22;47258;59.424;13.482;2023-07-31T09:52:47;19.00;99.90
46217;DHT22;47258;59.424;13.482;2023-07-31T09:55:16;19.20;99.90
46217;DHT22;47258;59.424;13.482;2023-07-31T09:57:46;19.40;99.90
46217;DHT22;47258;59.424;13.482;2023-07-31T10:00:15;19.50;99.90
46217;DHT22;47258;59.424;13.482;2023-07-31T10:02:45;19.80;99.90
46217;DHT22;47258;59.424;13.482;2023-07-31T10:05:13;20.10;99.90
46217;DHT22;47258;59.424;13.482;2023-07-31T10:07:43;20.40;99.90
46217;DHT22;47258;59.424;13.482;2023-07-31T10:10:11;20.60;99.90
46217;DHT22;47258;59.424;13.482;2023-07-31T10:12:42;20.80;99.90
46217;DHT22;47258;59.424;13.482;2023-07-31T10:15:10;20.90;99.90
46217;DHT22;47258;59.424;13.482;2023-07-31T10:17:38;20.90;99.90
46217;DHT22;47258;59.424;13.482;2023-07-31T10:20:07;20.90;99.90
46217;DHT22;47258;59.424;13.482;2023-07-31T10:22:35;21.00;99.90
46217;DHT22;47258;59.424;13.482;2023-07-31T10:25:04;21.10;99.90
46217;DHT22;47258;59.424;13.482;2023-07-31T10:27:31;21.20;99.90
46217;DHT22;47258;59.424;13.482;2023-07-31T10:30:04;21.30;99.90
46217;DHT22;47258;59.424;13.482;2023-07-31T10:32:32;21.50;99.90
46217;DHT22;47258;59.424;13.482;2023-07-31T10:35:01;21.70;99.90
46217;DHT22;47258;59.424;13.482;2023-07-31T10:37:29;21.90;99.90
46217;DHT22;47258;59.424;13.482;2023-07-31T10:40:01;22.10;99.90
46217;DHT22;47258;59.424;13.482;2023-07-31T10:42:30;21.90;99.90
46217;DHT22;47258;59.424;13.482;2023-07-31T10:44:58;21.80;99.90
46217;DHT22;47258;59.424;13.482;2023-07-31T10:47:26;21.90;99.90
46217;DHT22;47258;59.424;13.482;2023-07-31T10:50:11;22.10;99.90
46217;DHT22;47258;59.424;13.482;2023-07-31T10:52:38;22.20;99.90
46217;DHT22;47258;59.424;13.482;2023-07-31T10:55:22;22.30;99.90
46217;DHT22;47258;59.424;13.482;2023-07-31T10:57:49;22.50;99.90
46217;DHT22;47258;59.424;13.482;2023-07-31T11:00:21;22.80;99.90
46217;DHT22;47258;59.424;13.482;2023-07-31T11:03:05;23.00;99.90
46217;DHT22;47258;59.424;13.482;2023-07-31T11:05:46;23.00;99.90
46217;DHT22;47258;59.424;13.482;2023-07-31T11:08:15;22.90;99.90
46217;DHT22;47258;59.424;13.482;2023-07-31T11:10:43;22.90;99.90
46217;DHT22;47258;59.424;13.482;2023-07-31T11:13:10;23.00;99.90
46217;DHT22;47258;59.424;13.482;2023-07-31T11:15:38;23.10;99.90
46217;DHT22;47258;59.424;13.482;2023-07-31T11:18:06;23.20;99.90
46217;DHT22;47258;59.424;13.482;2023-07-31T11:20:37;23.10;99.90
46217;DHT22;47258;59.424;13.482;2023-07-31T11:23:06;23.20;99.90
46217;DHT22;47258;59.424;13.482;2023-07-31T11:25:34;23.40;99.90
46217;DHT22;47258;59.424;13.482;2023-07-31T11:28:06;23.70;99.90
46217;DHT22;47258;59.424;13.482;2023-07-31T11:30:34;23.70;99.90
46217;DHT22;47258;59.424;13.482;2023-07-31T11:33:02;23.80;99.90
46217;DHT22;47258;59.424;13.482;2023-07-31T11:35:32;23.70;99.90
46217;DHT22;47258;59.424;13.482;2023-07-31T11:38:00;23.50;99.90
46217;DHT22;47258;59.424;13.482;2023-07-31T11:40:28;23.20;99.90
46217;DHT22;47258;59.424;13.482;2023-07-31T11:42:56;23.10;99.90
46217;DHT22;47258;59.424;13.482;2023-07-31T11:45:26;23.30;99.90
46217;DHT22;47258;59.424;13.482;2023-07-31T11:47:55;23.50;99.90
46217;DHT22;47258;59.424;13.482;2023-07-31T11:50:23;23.50;99.90
46217;DHT22;47258;59.424;13.482;2023-07-31T11:52:55;23.30;99.90
46217;DHT22;47258;59.424;13.482;2023-07-31T11:55:24;23.30;99.90
46217;DHT22;47258;59.424;13.482;2023-07-31T11:57:51;23.20;99.90
46217;DHT22;47258;59.424;13.482;2023-07-31T12:00:19;23.20;99.90
46217;DHT22;47258;59.424;13.482;2023-07-31T12:02:47;23.30;99.90
46217;DHT22;47258;59.424;13.482;2023-07-31T12:05:14;23.40;99.90
46217;DHT22;47258;59.424;13.482;2023-07-31T12:07:45;23.30;99.90
46217;DHT22;47258;59.424;13.482;2023-07-31T12:10:24;23.10;99.90
46217;DHT22;47258;59.424;13.482;2023-07-31T12:13:02;22.90;99.90
46217;DHT22;47258;59.424;13.482;2023-07-31T12:15:32;22.70;99.90
46217;DHT22;47258;59.424;13.482;2023-07-31T12:17:59;22.60;99.90
46217;DHT22;47258;59.424;13.482;2023-07-31T12:20:26;22.60;99.90
46217;DHT22;47258;59.424;13.482;2023-07-31T12:22:56;22.60;99.90
46217;DHT22;47258;59.424;13.482;2023-07-31T12:25:33;22.40;99.90
46217;DHT22;47258;59.424;13.482;2023-07-31T12:28:05;22.40;99.90
46217;DHT22;47258;59.424;13.482;2023-07-31T12:30:38;22.10;99.90
46217;DHT22;47258;59.424;13.482;2023-07-31T12:33:06;22.00;99.90
46217;DHT22;47258;59.424;13.482;2023-07-31T12:35:37;22.10;99.90
46217;DHT22;47258;59.424;13.482;2023-07-31T12:38:05;22.20;99.90
46217;DHT22;47258;59.424;13.482;2023-07-31T12:40:35;22.20;99.90
46217;DHT22;47258;59.424;13.482;2023-07-31T12:43:02;22.20;99.90
46217;DHT22;47258;59.424;13.482;2023-07-31T12:45:30;22.20;99.90
46217;DHT22;47258;59.424;13.482;2023-07-31T12:47:57;22.20;99.90
46217;DHT22;47258;59.424;13.482;2023-07-31T12:50:24;22.20;99.90
46217;DHT22;47258;59.424;13.482;2023-07-31T12:52:53;22.20;99.90
46217;DHT22;47258;59.424;13.482;2023-07-31T12:55:20;22.20;99.90
46217;DHT22;47258;59.424;13.482;2023-07-31T12:57:49;22.30;99.90
46217;DHT22;47258;59.424;13.482;2023-07-31T13:00:16;22.30;99.90
46217;DHT22;47258;59.424;13.482;2023-07-31T13:02:43;22.50;99.90
46217;DHT22;47258;59.424;13.482;2023-07-31T13:05:10;22.60;99.90
46217;DHT22;47258;59.424;13.482;2023-07-31T13:07:38;22.70;99.90
46217;DHT22;47258;59.424;13.482;2023-07-31T13:10:07;22.70;99.90
46217;DHT22;47258;59.424;13.482;2023-07-31T13:12:34;22.70;99.90
46217;DHT22;47258;59.424;13.482;2023-07-31T13:15:03;22.60;99.90
46217;DHT22;47258;59.424;13.482;2023-07-31T13:17:30;22.70;99.90
46217;DHT22;47258;59.424;13.482;2023-07-31T13:19:57;22.90;99.90
46217;DHT22;47258;59.424;13.482;2023-07-31T13:22:24;23.00;99.90
46217;DHT22;47258;59.424;13.482;2023-07-31T13:24:51;23.00;99.90
46217;DHT22;47258;59.424;13.482;2023-07-31T13:27:18;23.10;99.90
46217;DHT22;47258;59.424;13.482;2023-07-31T13:29:47;23.20;99.90
46217;DHT22;47258;59.424;13.482;2023-07-31T13:32:16;23.40;99.90
46217;DHT22;47258;59.424;13.482;2023-07-31T13:34:43;23.30;99.90
46217;DHT22;47258;59.424;13.482;2023-07-31T13:37:10;23.30;99.90
46217;DHT22;47258;59.424;13.482;2023-07-31T13:39:38;23.40;99.90
46217;DHT22;47258;59.424;13.482;2023-07-31T13:42:06;23.60;99.90
46217;DHT22;47258;59.424;13.482;2023-07-31T13:44:34;23.70;99.90
46217;DHT22;47258;59.424;13.482;2023-07-31T13:47:01;23.80;99.90
46217;DHT22;47258;59.424;13.482;2023-07-31T13:49:30;23.90;99.90
46217;DHT22;47258;59.424;13.482;2023-07-31T13:51:58;23.80;99.90
46217;DHT22;47258;59.424;13.482;2023-07-31T13:54:25;23.80;99.90
46217;DHT22;47258;59.424;13.482;2023-07-31T13:56:52;23.80;99.90
46217;DHT22;47258;59.424;13.482;2023-07-31T13:59:19;24.00;99.90
46217;DHT22;47258;59.424;13.482;2023-07-31T14:01:47;24.10;99.90
46217;DHT22;47258;59.424;13.482;2023-07-31T14:04:14;24.20;99.90
46217;DHT22;47258;59.424;13.482;2023-07-31T14:06:42;24.00;99.90
46217;DHT22;47258;59.424;13.482;2023-07-31T14:09:10;23.90;99.90
46217;DHT22;47258;59.424;13.482;2023-07-31T14:11:37;23.90;99.90
46217;DHT22;47258;59.424;13.482;2023-07-31T14:14:04;24.20;99.90
46217;DHT22;47258;59.424;13.482;2023-07-31T14:16:31;24.30;99.90
46217;DHT22;47258;59.424;13.482;2023-07-31T14:18:58;24.30;99.90
46217;DHT22;47258;59.424;13.482;2023-07-31T14:21:25;24.40;99.90
46217;DHT22;47258;59.424;13.482;2023-07-31T14:23:54;24.70;99.90
46217;DHT22;47258;59.424;13.482;2023-07-31T14:26:21;24.90;99.90
46217;DHT22;47258;59.424;13.482;2023-07-31T14:28:48;25.00;99.90
46217;DHT22;47258;59.424;13.482;2023-07-31T14:31:15;25.10;99.90
46217;DHT22;47258;59.424;13.482;2023-07-31T14:33:42;25.00;99.90
46217;DHT22;47258;59.424;13.482;2023-07-31T14:36:09;25.20;99.90
46217;DHT22;47258;59.424;13.482;2023-07-31T14:38:36;25.30;99.90
46217;DHT22;47258;59.424;13.482;2023-07-31T14:41:05;25.40;99.90
46217;DHT22;47258;59.424;13.482;2023-07-31T14:43:32;25.40;99.90
46217;DHT22;47258;59.424;13.482;2023-07-31T14:45:59;25.30;99.90
46217;DHT22;47258;59.424;13.482;2023-07-31T14:48:26;25.20;99.90
46217;DHT22;47258;59.424;13.482;2023-07-31T14:50:54;25.10;99.90
46217;DHT22;47258;59.424;13.482;2023-07-31T14:53:22;25.10;99.90
46217;DHT22;47258;59.424;13.482;2023-07-31T14:55:49;25.20;99.90
46217;DHT22;47258;59.424;13.482;2023-07-31T14:58:17;25.20;99.90
46217;DHT22;47258;59.424;13.482;2023-07-31T15:00:44;25.30;99.90
46217;DHT22;47258;59.424;13.482;2023-07-31T15:03:11;25.30;99.90
46217;DHT22;47258;59.424;13.482;2023-07-31T15:05:38;25.40;99.90
46217;DHT22;47258;59.424;13.482;2023-07-31T15:08:05;25.50;99.90
46217;DHT22;47258;59.424;13.482;2023-07-31T15:10:32;25.40;99.90
46217;DHT22;47258;59.424;13.482;2023-07-31T15:13:00;25.40;99.90
46217;DHT22;47258;59.424;13.482;2023-07-31T15:15:29;25.40;99.90
46217;DHT22;47258;59.424;13.482;2023-07-31T15:17:56;25.50;99.90
46217;DHT22;47258;59.424;13.482;2023-07-31T15:20:23;25.50;99.90